Time;durP1;ratioP1;P1;durP2;ratioP2;P2;SDS_P1;SDS_P2;PMS_P1;PMS_P2;Temp;Humidity;BMP_temperature;BMP_pressure;BME280_temperature;BME280_humidity;BME280_pressure;Samples;Min_cycle;Max_cycle;Signal;HPM_P1;HPM_P2
2023/01/19 00:00:24;;;;;;;21.42;4.65;;;;;;;12.01;95.31;97278.53;5052130;28;20644;-62
2023/01/19 00:02:49;;;;;;;25.88;4.28;;;;;;;11.88;96.76;97272.03;5052088;28;20173;-62
2023/01/19 00:05:16;;;;;;;15.73;4.30;;;;;;;12.15;97.47;97342.91;5052028;28;20276;-62
2023/01/19 00:07:42;;;;;;;17.08;4.40;;;;;;;11.76;98.70;97292.13;5051725;28;20192;-62
2023/01/19 00:10:08;;;;;;;24.33;4.78;;;;;;;11.44;99.20;97246.72;5052003;28;20185;-63
2023/01/19 00:12:34;;;;;;;22.48;4.78;;;;;;;11.51;99.51;97269.34;5051671;28;20565;-63
2023/01/19 00:14:59;;;;;;;18.83;4.22;;;;;;;11.91;100.00;97355.50;5052027;28;20170;-62
2023/01/19 00:17:24;;;;;;;22.65;4.13;;;;;;;11.90;100.00;97359.06;5051832;28;20283;-62
2023/01/19 00:19:50;;;;;;;20.65;5.10;;;;;;;11.83;100.00;97362.31;5052427;28;20178;-63
2023/01/19 00:22:15;;;;;;;18.45;4.68;;;;;;;11.76;100.00;97330.16;5051893;28;20177;-62
2023/01/19 00:24:40;;;;;;;16.38;5.07;;;;;;;11.74;100.00;97312.16;5051887;28;20178;-63
2023/01/19 00:27:06;;;;;;;27.58;6.20;;;;;;;11.56;100.00;97294.84;5052706;28;20247;-62
2023/01/19 00:29:33;;;;;;;17.98;5.07;;;;;;;11.79;100.00;97335.06;5051817;28;20173;-62
2023/01/19 00:32:03;;;;;;;22.55;5.03;;;;;;;11.44;100.00;97303.72;5051757;28;20186;-62
2023/01/19 00:34:38;;;;;;;24.85;5.57;;;;;;;11.52;100.00;97298.66;5051690;28;20181;-62
2023/01/19 00:37:10;;;;;;;17.88;4.65;;;;;;;11.63;100.00;97321.84;5051565;28;20248;-62
2023/01/19 00:39:36;;;;;;;33.50;5.57;;;;;;;11.83;100.00;97346.78;5051772;28;20179;-62
2023/01/19 00:44:45;;;;;;;20.45;4.70;;;;;;;11.37;100.00;97318.16;5052087;28;20647;-62
2023/01/19 00:47:10;;;;;;;28.48;5.25;;;;;;;11.58;100.00;97368.03;5051620;28;20181;-62
2023/01/19 00:49:36;;;;;;;18.95;4.78;;;;;;;11.11;100.00;97286.81;5051752;28;20181;-63
2023/01/19 00:52:01;;;;;;;20.65;5.07;;;;;;;11.70;100.00;97383.34;5049675;28;20273;-62
2023/01/19 00:54:27;;;;;;;26.15;5.07;;;;;;;11.68;100.00;97381.84;5049538;28;20202;-62
2023/01/19 00:56:52;;;;;;;22.02;4.53;;;;;;;11.45;100.00;97341.59;5049935;28;20293;-63
2023/01/19 00:59:18;;;;;;;24.17;5.55;;;;;;;11.40;100.00;97325.66;5049509;28;20186;-62
2023/01/19 01:01:43;;;;;;;23.33;5.07;;;;;;;11.58;100.00;97368.03;5051894;28;20379;-63
2023/01/19 01:04:11;;;;;;;25.05;6.07;;;;;;;11.42;100.00;97332.34;5053123;28;20192;-63
2023/01/19 01:06:36;;;;;;;24.98;5.45;;;;;;;11.70;100.00;97387.72;5052865;28;20217;-62
2023/01/19 01:09:10;;;;;;;18.35;4.68;;;;;;;11.19;100.00;97330.13;5052889;28;20226;-62
2023/01/19 01:11:37;;;;;;;22.42;4.72;;;;;;;11.10;100.00;97305.88;5052816;28;20605;-62
2023/01/19 01:14:02;;;;;;;24.73;4.88;;;;;;;11.39;100.00;97357.69;5052761;28;20756;-62
2023/01/19 01:16:28;;;;;;;20.00;4.63;;;;;;;11.23;100.00;97332.34;5052426;28;20272;-63
2023/01/19 01:18:53;;;;;;;19.30;3.88;;;;;;;11.20;100.00;97326.59;5072523;28;20196;-63
2023/01/19 01:21:18;;;;;;;22.60;5.03;;;;;;;11.56;100.00;97362.19;5072610;28;20264;-63
2023/01/19 01:23:44;;;;;;;22.13;5.80;;;;;;;11.84;99.45;97374.34;5072471;28;20189;-62
2023/01/19 01:26:09;;;;;;;16.52;4.68;;;;;;;12.01;94.84;97352.91;5072629;28;20173;-62
2023/01/19 01:28:35;;;;;;;15.95;3.78;;;;;;;12.24;97.08;97372.34;5072313;28;20189;-62
2023/01/19 01:31:00;;;;;;;20.75;3.90;;;;;;;11.94;97.29;97318.94;5072193;28;20239;-63
2023/01/19 01:33:26;;;;;;;23.70;4.80;;;;;;;11.92;97.78;97328.66;5072258;28;20283;-62
2023/01/19 01:35:51;;;;;;;21.50;4.18;;;;;;;12.10;97.90;97355.47;5088396;28;20296;-62
2023/01/19 01:38:16;;;;;;;19.38;4.30;;;;;;;11.75;98.04;97307.78;5092268;28;20303;-62
2023/01/19 01:40:42;;;;;;;19.45;4.40;;;;;;;11.73;98.45;97312.31;5092348;28;20631;-62
2023/01/19 01:43:12;;;;;;;19.50;4.22;;;;;;;11.67;99.57;97305.09;5092279;28;20238;-63
2023/01/19 01:45:39;;;;;;;23.25;5.25;;;;;;;11.66;99.92;97314.63;5092425;28;20196;-62
2023/01/19 01:48:09;;;;;;;21.20;5.80;;;;;;;11.83;100.00;97354.56;5092208;28;20184;-63
2023/01/19 01:51:22;;;;;;;18.15;4.95;;;;;;;11.73;100.00;97335.63;5061967;28;20280;-62
2023/01/19 01:53:28;;;;;;;18.65;5.00;;;;;;;11.50;100.00;97308.34;5053831;28;20209;-62
2023/01/19 01:55:54;;;;;;;28.13;5.47;;;;;;;11.50;100.00;97321.28;5053843;28;20619;-62
2023/01/19 01:58:20;;;;;;;20.95;4.63;;;;;;;11.45;100.00;97324.28;5053655;28;20202;-63
2023/01/19 02:03:31;;;;;;;18.80;4.00;;;;;;;11.57;100.00;97363.81;5054328;28;20728;-62
2023/01/19 02:06:00;;;;;;;20.67;3.78;;;;;;;11.43;100.00;97351.28;5053917;28;20173;-62
2023/01/19 02:14:14;;;;;;;18.35;4.45;;;;;;;11.29;100.00;97356.84;5054132;28;20594;-63
2023/01/19 02:16:40;;;;;;;27.52;4.07;;;;;;;11.56;100.00;97395.88;5053611;28;20181;-62
2023/01/19 02:19:11;;;;;;;24.77;5.47;;;;;;;11.41;100.00;97387.69;5053637;28;20184;-62
2023/01/19 02:21:41;;;;;;;17.52;3.10;;;;;;;11.47;100.00;97409.63;5053967;28;20173;-63
2023/01/19 02:24:08;;;;;;;16.80;3.78;;;;;;;11.14;100.00;97360.81;5054132;28;20596;-62
2023/01/19 02:26:38;;;;;;;22.05;4.28;;;;;;;11.12;100.00;97352.31;5053525;28;20177;-62
2023/01/19 02:29:07;;;;;;;17.83;3.88;;;;;;;11.13;100.00;97348.78;5053408;28;20268;-62
2023/01/19 02:31:36;;;;;;;24.50;4.63;;;;;;;11.14;100.00;97332.31;5053427;28;20227;-63
2023/01/19 02:34:02;;;;;;;18.92;4.22;;;;;;;11.18;100.00;97351.78;5053377;28;20181;-63
2023/01/19 02:36:36;;;;;;;14.80;3.70;;;;;;;11.07;100.00;97338.97;5053465;28;20193;-63
2023/01/19 02:39:03;;;;;;;15.05;3.72;;;;;;;11.11;100.00;97348.13;5053903;28;20220;-62
2023/01/19 02:41:34;;;;;;;16.70;3.70;;;;;;;11.09;100.00;97334.50;5053727;28;20186;-62
2023/01/19 02:44:00;;;;;;;20.98;3.90;;;;;;;11.29;100.00;97377.56;5053579;28;20205;-62
2023/01/19 02:46:26;;;;;;;21.52;3.90;;;;;;;11.30;100.00;97379.19;5053189;28;20178;-62
2023/01/19 02:48:51;;;;;;;18.75;4.00;;;;;;;10.96;100.00;97339.91;5052791;28;20185;-63
2023/01/19 02:51:21;;;;;;;25.52;5.13;;;;;;;11.11;100.00;97374.00;5053856;28;20182;-63
2023/01/19 02:54:11;;;;;;;27.75;5.63;;;;;;;11.21;100.00;97390.38;5053343;28;20177;-63
2023/01/19 02:56:55;;;;;;;19.35;4.40;;;;;;;11.16;100.00;97402.91;5053702;28;20601;-63
2023/01/19 02:59:58;;;;;;;24.52;5.28;;;;;;;11.07;100.00;97404.50;5053531;28;20174;-63
2023/01/19 03:02:30;;;;;;;20.85;4.78;;;;;;;11.11;100.00;97402.47;5052874;28;20713;-63
2023/01/19 03:05:15;;;;;;;27.05;5.47;;;;;;;11.08;100.00;97402.75;5052844;28;20260;-63
2023/01/19 03:07:46;;;;;;;20.85;4.70;;;;;;;11.07;100.00;97394.16;5052768;28;20186;-63
2023/01/19 03:10:21;;;;;;;17.58;3.90;;;;;;;11.03;100.00;97397.16;5053313;28;20177;-63
2023/01/19 03:12:56;;;;;;;14.25;4.15;;;;;;;10.99;100.00;97395.78;5053105;28;20172;-63
2023/01/19 03:15:29;;;;;;;19.77;4.72;;;;;;;10.98;100.00;97388.97;5053224;28;20181;-63
2023/01/19 03:17:59;;;;;;;19.23;4.35;;;;;;;10.79;100.00;97363.03;5052635;28;20219;-63
2023/01/19 03:20:27;;;;;;;23.13;4.68;;;;;;;10.60;100.00;97357.78;5052564;28;20787;-62
2023/01/19 03:23:03;;;;;;;13.57;3.72;;;;;;;10.89;100.00;97405.25;5052203;28;20177;-62
2023/01/19 03:25:33;;;;;;;16.95;3.65;;;;;;;10.45;100.00;97312.56;5053080;28;20173;-63
2023/01/19 03:27:59;;;;;;;12.45;3.92;;;;;;;10.90;100.00;97375.84;5052539;28;20162;-63
2023/01/19 03:30:29;;;;;;;14.13;3.53;;;;;;;10.79;100.00;97384.53;5052439;28;20189;-62
2023/01/19 03:33:22;;;;;;;19.17;4.10;;;;;;;10.87;100.00;97397.66;5050744;28;20189;-62
2023/01/19 03:35:51;;;;;;;15.10;4.53;;;;;;;10.57;100.00;97339.94;5049837;28;20233;-62
2023/01/19 03:38:23;;;;;;;16.83;3.83;;;;;;;10.69;100.00;97357.00;5050177;28;20684;-62
2023/01/19 03:40:52;;;;;;;22.13;4.38;;;;;;;10.66;100.00;97359.84;5050088;28;20703;-63
2023/01/19 03:43:18;;;;;;;13.82;3.33;;;;;;;10.65;100.00;97365.97;5050119;28;20229;-62
2023/01/19 03:45:44;;;;;;;18.75;4.50;;;;;;;10.86;100.00;97396.00;5049913;28;20189;-63
2023/01/19 03:48:10;;;;;;;23.77;4.65;;;;;;;10.71;100.00;97366.28;5050358;28;20198;-62
2023/01/19 03:50:36;;;;;;;23.38;4.25;;;;;;;10.93;100.00;97410.06;5049906;28;20717;-62
2023/01/19 03:53:04;;;;;;;19.30;3.50;;;;;;;10.89;100.00;97419.03;5049965;28;20182;-63
2023/01/19 03:55:29;;;;;;;22.02;4.35;;;;;;;10.57;100.00;97356.25;5049826;28;20177;-63
2023/01/19 03:57:55;;;;;;;17.67;3.58;;;;;;;10.63;100.00;97378.22;5049812;28;20214;-62
2023/01/19 04:00:20;;;;;;;19.33;4.32;;;;;;;10.59;100.00;97367.31;5049771;28;20200;-62
2023/01/19 04:02:46;;;;;;;22.38;4.22;;;;;;;10.86;100.00;97406.34;5049748;28;20288;-62
2023/01/19 04:05:11;;;;;;;22.63;4.78;;;;;;;10.82;100.00;97398.97;5052148;28;20177;-62
2023/01/19 04:07:36;;;;;;;16.58;3.67;;;;;;;10.87;100.00;97412.34;5052006;28;20566;-62
2023/01/19 04:10:02;;;;;;;17.17;3.78;;;;;;;10.73;100.00;97404.97;5051799;28;20202;-62
2023/01/19 04:12:27;;;;;;;17.02;3.70;;;;;;;10.50;100.00;97364.69;5051984;28;20201;-63
2023/01/19 04:14:53;;;;;;;18.50;4.15;;;;;;;10.77;100.00;97401.97;5051993;28;20178;-62
2023/01/19 04:17:18;;;;;;;20.70;5.32;;;;;;;10.76;100.00;97405.50;5051931;28;20205;-62
2023/01/19 04:19:44;;;;;;;19.95;6.00;;;;;;;10.66;100.00;97396.06;5051735;28;20178;-62
2023/01/19 04:22:09;;;;;;;20.77;4.45;;;;;;;10.85;100.00;97416.84;5051878;28;20270;-62
2023/01/19 04:24:35;;;;;;;20.27;4.95;;;;;;;10.41;100.00;97353.38;5052183;28;20264;-62
2023/01/19 04:27:00;;;;;;;23.70;4.65;;;;;;;10.83;100.00;97421.31;5051872;28;20189;-62
2023/01/19 04:29:25;;;;;;;17.77;4.40;;;;;;;10.24;100.00;97329.88;5051882;28;20209;-62
2023/01/19 04:31:51;;;;;;;25.35;4.10;;;;;;;10.24;100.00;97327.28;5051809;28;20169;-62
2023/01/19 04:34:16;;;;;;;19.35;5.00;;;;;;;10.72;100.00;97403.28;5051885;28;20205;-62
2023/01/19 04:36:44;;;;;;;15.05;3.95;;;;;;;10.79;100.00;97415.59;5054456;28;20263;-62
2023/01/19 04:39:10;;;;;;;16.65;4.85;;;;;;;10.27;100.00;97334.78;5055823;28;20190;-62
2023/01/19 04:41:36;;;;;;;16.33;4.70;;;;;;;10.77;100.00;97416.66;5055604;28;20182;-62
2023/01/19 04:44:02;;;;;;;17.83;4.05;;;;;;;10.45;100.00;97370.25;5056047;28;20203;-62
2023/01/19 04:46:27;;;;;;;20.40;4.68;;;;;;;10.51;100.00;97405.13;5055138;28;20652;-62
2023/01/19 04:48:53;;;;;;;13.80;4.60;;;;;;;10.65;100.00;97428.03;5033244;28;20287;-62
2023/01/19 04:51:18;;;;;;;18.13;4.30;;;;;;;10.08;100.00;97339.84;5033634;28;20244;-63
2023/01/19 04:53:43;;;;;;;20.88;4.50;;;;;;;10.03;100.00;97344.53;5033216;28;20649;-62
2023/01/19 04:56:09;;;;;;;21.65;3.58;;;;;;;10.39;100.00;97408.75;5033323;28;20229;-63
2023/01/19 04:58:35;;;;;;;16.05;3.70;;;;;;;10.25;100.00;97393.53;5033036;28;20218;-62
2023/01/19 05:01:00;;;;;;;18.80;4.53;;;;;;;10.21;100.00;97384.44;5032870;28;20183;-62
2023/01/19 05:03:26;;;;;;;19.92;4.03;;;;;;;10.15;100.00;97374.59;5032936;28;20240;-62
2023/01/19 05:05:51;;;;;;;21.38;4.50;;;;;;;10.09;100.00;97364.75;5033634;28;20190;-63
2023/01/19 05:08:17;;;;;;;21.70;4.05;;;;;;;10.32;100.00;97410.19;5033361;28;20198;-63
2023/01/19 05:10:42;;;;;;;22.25;5.97;;;;;;;10.50;100.00;97424.97;5032719;28;20186;-62
2023/01/19 05:13:07;;;;;;;21.45;4.13;;;;;;;10.13;100.00;97376.47;5032719;28;20182;-62
2023/01/19 05:15:33;;;;;;;18.65;4.28;;;;;;;10.48;100.00;97432.06;5033191;28;20269;-62
2023/01/19 05:17:58;;;;;;;17.77;4.97;;;;;;;10.26;100.00;97393.41;5032869;28;20198;-62
2023/01/19 05:20:24;;;;;;;19.23;5.45;;;;;;;10.19;100.00;97383.72;5049284;28;20188;-62
2023/01/19 05:22:51;;;;;;;27.77;5.22;;;;;;;10.48;100.00;97429.47;5054525;28;20261;-62
2023/01/19 05:25:17;;;;;;;20.33;5.55;;;;;;;10.57;100.00;97433.84;5054815;28;20184;-63
2023/01/19 05:27:43;;;;;;;22.50;5.22;;;;;;;10.27;100.00;97394.25;5055332;28;20209;-62
2023/01/19 05:30:09;;;;;;;15.77;4.38;;;;;;;9.98;100.00;97349.28;5054664;28;20764;-62
2023/01/19 05:32:35;;;;;;;23.20;4.22;;;;;;;10.20;100.00;97375.84;5054588;28;20652;-62
2023/01/19 05:35:00;;;;;;;21.55;4.25;;;;;;;10.45;100.00;97415.97;5054900;28;20182;-62
2023/01/19 05:37:26;;;;;;;17.38;4.65;;;;;;;10.30;100.00;97399.16;5055402;28;20205;-62
2023/01/19 05:39:52;;;;;;;27.67;5.13;;;;;;;10.25;100.00;97398.72;5054515;28;20605;-62
2023/01/19 05:42:17;;;;;;;14.63;5.38;;;;;;;10.08;100.00;97381.19;5054447;28;20232;-63
2023/01/19 05:44:43;;;;;;;17.02;4.25;;;;;;;10.46;100.00;97428.75;5032484;28;20205;-63
2023/01/19 05:47:08;;;;;;;26.23;5.60;;;;;;;10.19;100.00;97373.38;5031825;28;20206;-63
2023/01/19 05:49:34;;;;;;;20.27;4.82;;;;;;;10.25;100.00;97396.13;5032553;28;20190;-62
2023/01/19 05:52:00;;;;;;;21.50;5.97;;;;;;;10.16;100.00;97400.28;5031986;28;20186;-62
2023/01/19 05:54:25;;;;;;;27.50;5.50;;;;;;;10.16;100.00;97412.41;5032430;28;20715;-62
2023/01/19 05:56:51;;;;;;;26.55;6.50;;;;;;;10.07;100.00;97397.66;5031889;28;20175;-62
2023/01/19 05:59:22;;;;;;;21.13;5.07;;;;;;;10.12;100.00;97418.78;5031927;28;20617;-62
2023/01/19 06:01:49;;;;;;;19.20;5.05;;;;;;;10.42;100.00;97470.53;5032660;28;20251;-62
2023/01/19 06:04:14;;;;;;;30.48;11.85;;;;;;;9.89;100.00;97399.13;5032099;28;20273;-63
2023/01/19 06:06:40;;;;;;;17.20;6.25;;;;;;;10.39;100.00;97470.78;5031773;28;20297;-62
2023/01/19 06:09:06;;;;;;;20.20;5.05;;;;;;;10.05;100.00;97415.84;5031647;28;20186;-63
2023/01/19 06:11:32;;;;;;;20.35;5.35;;;;;;;10.39;100.00;97473.38;5032421;28;20186;-63
2023/01/19 06:13:57;;;;;;;22.65;4.88;;;;;;;10.06;100.00;97408.94;5031583;28;20190;-62
2023/01/19 06:16:22;;;;;;;19.13;5.15;;;;;;;10.12;100.00;97421.34;5048940;28;20189;-62
2023/01/19 06:18:48;;;;;;;20.60;4.82;;;;;;;10.43;100.00;97456.66;5053349;28;20237;-63
2023/01/19 06:21:13;;;;;;;18.80;4.82;;;;;;;10.37;100.00;97454.56;5053766;28;20174;-63
2023/01/19 06:23:39;;;;;;;19.77;5.50;;;;;;;10.43;100.00;97464.41;5053668;28;20614;-63
2023/01/19 06:26:04;;;;;;;29.98;6.10;;;;;;;10.49;100.00;97466.47;5053573;28;20185;-62
2023/01/19 06:28:30;;;;;;;26.30;4.90;;;;;;;10.39;100.00;97468.22;5053533;28;20213;-62
2023/01/19 06:30:55;;;;;;;24.77;5.95;;;;;;;10.44;100.00;97472.03;5053447;28;20563;-62
2023/01/19 06:33:22;;;;;;;28.85;5.35;;;;;;;10.48;100.00;97477.78;5053382;28;20174;-62
2023/01/19 06:35:49;;;;;;;21.20;5.20;;;;;;;10.27;100.00;97444.16;5053399;28;20246;-62
2023/01/19 06:38:17;;;;;;;26.45;6.18;;;;;;;10.24;100.00;97444.44;5053583;28;20546;-62
2023/01/19 06:40:43;;;;;;;28.27;5.78;;;;;;;10.18;100.00;97444.13;5053272;28;20185;-62
2023/01/19 06:43:10;;;;;;;29.13;6.10;;;;;;;10.30;100.00;97456.84;5053471;28;20289;-62
2023/01/19 06:45:37;;;;;;;23.40;6.22;;;;;;;10.19;100.00;97425.06;5053034;28;20180;-62
2023/01/19 06:48:03;;;;;;;26.00;6.22;;;;;;;10.22;100.00;97435.16;5053105;28;20177;-62
2023/01/19 06:50:28;;;;;;;18.90;5.45;;;;;;;10.44;100.00;97456.53;5053061;28;20189;-62
2023/01/19 06:52:53;;;;;;;25.85;7.50;;;;;;;10.60;100.00;97471.59;5052985;28;20177;-63
2023/01/19 06:55:19;;;;;;;29.55;7.15;;;;;;;10.76;100.00;97479.72;5053022;28;20177;-62
2023/01/19 06:57:44;;;;;;;28.83;6.97;;;;;;;10.46;100.00;97426.19;5052439;28;20201;-62
2023/01/19 07:00:12;;;;;;;29.38;7.07;;;;;;;10.64;100.00;97452.28;5050890;28;20209;-61
2023/01/19 07:02:44;;;;;;;26.15;6.78;;;;;;;10.96;100.00;97496.94;5051044;28;20612;-62
2023/01/19 07:05:13;;;;;;;27.20;9.32;;;;;;;10.70;100.00;97446.59;5050589;28;20193;-62
2023/01/19 07:07:38;;;;;;;31.20;9.77;;;;;;;10.73;100.00;97441.19;5050418;28;20667;-62
2023/01/19 07:10:11;;;;;;;30.25;8.07;;;;;;;11.09;100.00;97494.97;5050651;28;20186;-62
2023/01/19 07:12:37;;;;;;;27.55;7.55;;;;;;;11.19;100.00;97493.22;5051016;28;20268;-62
2023/01/19 07:15:03;;;;;;;26.38;6.15;;;;;;;11.11;100.00;97477.53;5050505;28;20186;-62
2023/01/19 07:17:28;;;;;;;21.75;6.20;;;;;;;11.01;100.00;97440.44;5050224;28;20287;-62
2023/01/19 07:19:54;;;;;;;25.13;6.70;;;;;;;11.12;100.00;97448.09;5050427;28;20182;-61
2023/01/19 07:22:19;;;;;;;29.52;8.30;;;;;;;11.20;100.00;97441.31;5051133;28;20260;-61
2023/01/19 07:24:45;;;;;;;25.90;7.22;;;;;;;11.44;100.00;97440.97;5050015;28;20718;-61
2023/01/19 07:27:11;;;;;;;34.38;8.18;;;;;;;11.66;98.97;97433.81;5050226;28;20272;-62
2023/01/19 07:29:36;;;;;;;22.92;7.13;;;;;;;12.05;97.24;97486.47;5050424;28;20216;-61
2023/01/19 07:32:03;;;;;;;32.28;10.57;;;;;;;12.12;96.42;97482.38;5052660;28;20189;-61
2023/01/19 07:34:28;;;;;;;30.88;11.70;;;;;;;11.92;95.57;97449.66;5052666;28;20232;-61
2023/01/19 07:36:57;;;;;;;36.92;14.50;;;;;;;11.88;95.24;97443.91;5052385;28;20621;-61
2023/01/19 07:39:22;;;;;;;36.35;10.68;;;;;;;11.88;94.87;97443.09;5052414;28;20169;-61
2023/01/19 07:41:48;;;;;;;27.35;8.38;;;;;;;12.25;94.87;97503.69;5052317;28;20632;-61
2023/01/19 07:44:13;;;;;;;26.80;8.45;;;;;;;12.31;94.45;97505.72;5052302;28;20188;-61
2023/01/19 07:46:39;;;;;;;28.13;8.27;;;;;;;12.32;93.85;97494.38;5052234;28;20261;-62
2023/01/19 07:49:04;;;;;;;28.10;8.57;;;;;;;12.03;93.30;97439.94;5053034;28;20199;-61
2023/01/19 07:51:30;;;;;;;22.25;7.38;;;;;;;12.36;93.89;97495.75;5052223;28;20173;-62
2023/01/19 07:53:55;;;;;;;24.80;7.13;;;;;;;12.09;92.75;97430.81;5052163;28;20174;-61
2023/01/19 07:56:22;;;;;;;25.13;5.85;;;;;;;12.48;92.19;97492.06;5052151;28;20173;-61
2023/01/19 07:58:49;;;;;;;26.02;6.53;;;;;;;12.49;91.78;97491.09;5051764;28;20585;-63
2023/01/19 08:01:14;;;;;;;30.80;10.20;;;;;;;12.37;90.16;97448.91;5052436;28;20189;-62
2023/01/19 08:03:40;;;;;;;38.45;14.10;;;;;;;12.79;90.62;97503.88;5052181;28;20177;-61
2023/01/19 08:06:06;;;;;;;44.45;13.88;;;;;;;12.72;90.98;97484.63;5052177;28;20202;-62
2023/01/19 08:08:32;;;;;;;31.75;13.60;;;;;;;12.77;91.69;97490.22;5051445;28;20199;-62
2023/01/19 08:10:58;;;;;;;39.92;15.07;;;;;;;12.50;91.23;97452.03;5055829;28;20620;-62
2023/01/19 08:13:23;;;;;;;44.60;15.68;;;;;;;12.67;91.19;97448.69;5055679;28;20192;-62
2023/01/19 08:15:50;;;;;;;42.50;14.88;;;;;;;12.96;91.12;97506.56;5055625;28;20174;-62
2023/01/19 08:18:16;;;;;;;44.25;15.40;;;;;;;12.80;90.97;97471.75;5055966;28;20663;-62
2023/01/19 08:20:41;;;;;;;40.67;15.25;;;;;;;12.82;90.76;97457.69;5055937;28;20178;-62
2023/01/19 08:23:07;;;;;;;37.80;15.48;;;;;;;13.07;90.51;97487.41;5056017;28;20169;-62
2023/01/19 08:25:36;;;;;;;51.05;15.88;;;;;;;13.35;89.54;97507.25;5055982;28;20255;-61
2023/01/19 08:28:04;;;;;;;49.55;15.77;;;;;;;12.88;89.85;97425.94;5056091;28;20181;-62
2023/01/19 08:30:29;;;;;;;56.03;16.67;;;;;;;13.37;89.94;97510.53;5055716;28;20182;-62
2023/01/19 08:33:06;;;;;;;45.17;15.55;;;;;;;13.03;88.18;97440.16;5055808;28;20231;-62
2023/01/19 08:35:35;;;;;;;48.40;14.77;;;;;;;13.52;83.82;97444.91;5055610;28;20181;-61
2023/01/19 08:38:02;;;;;;;40.50;11.95;;;;;;;13.92;77.71;97496.50;5033476;28;20228;-61
2023/01/19 08:40:28;;;;;;;38.05;10.32;;;;;;;13.90;77.21;97467.25;5033536;28;20229;-62
2023/01/19 08:43:02;;;;;;;35.20;9.95;;;;;;;14.31;75.78;97508.28;5033512;28;20198;-62
2023/01/19 08:45:28;;;;;;;31.92;10.05;;;;;;;14.12;76.36;97462.38;5031133;28;20183;-61
2023/01/19 08:47:56;;;;;;;42.17;12.40;;;;;;;14.20;79.25;97467.72;5032790;28;20229;-62
2023/01/19 08:50:21;;;;;;;52.03;11.27;;;;;;;14.44;80.69;97493.09;5033138;28;20189;-62
2023/01/19 08:52:47;;;;;;;34.28;10.00;;;;;;;14.49;80.60;97506.47;5031980;28;20187;-62
2023/01/19 08:55:12;;;;;;;41.03;9.18;;;;;;;14.37;80.50;97424.41;5033083;28;20240;-62
2023/01/19 08:57:37;;;;;;;30.23;7.75;;;;;;;14.65;75.98;97485.78;5032991;28;20218;-62
2023/01/19 09:00:06;;;;;;;30.05;8.00;;;;;;;14.51;74.63;97453.31;5033031;28;20696;-62
2023/01/19 09:02:32;;;;;;;31.98;9.70;;;;;;;14.75;76.33;97457.88;5033454;28;20627;-62
2023/01/19 09:04:57;;;;;;;41.65;8.82;;;;;;;15.16;68.09;97485.75;5032915;28;20182;-62
2023/01/19 09:07:23;;;;;;;33.10;6.47;;;;;;;15.45;63.12;97481.81;5033654;28;20193;-61
2023/01/19 09:09:48;;;;;;;27.77;6.40;;;;;;;15.70;63.06;97480.13;5051967;28;20197;-62
2023/01/19 09:12:14;;;;;;;34.13;5.82;;;;;;;15.79;62.74;97473.94;5055028;28;20189;-61
2023/01/19 09:14:39;;;;;;;29.63;6.75;;;;;;;15.97;59.29;97479.88;5055513;28;20238;-62
2023/01/19 09:17:05;;;;;;;26.77;5.88;;;;;;;16.10;57.18;97435.84;5054938;28;20221;-62
2023/01/19 09:19:30;;;;;;;25.30;5.68;;;;;;;16.52;55.49;97465.22;5054880;28;20231;-62
2023/01/19 09:21:57;;;;;;;30.50;5.50;;;;;;;16.64;55.08;97466.50;5053790;28;20170;-62
2023/01/19 09:24:23;;;;;;;28.67;4.93;;;;;;;16.53;54.04;97443.34;5055470;28;20193;-62
2023/01/19 09:26:48;;;;;;;31.65;7.03;;;;;;;16.92;53.58;97473.00;5055050;28;20626;-61
2023/01/19 09:29:14;;;;;;;22.33;6.00;;;;;;;17.06;53.21;97456.63;5055541;28;20181;-63
2023/01/19 09:31:39;;;;;;;26.00;4.75;;;;;;;17.11;50.22;97438.63;5054723;28;20662;-62
2023/01/19 09:34:05;;;;;;;33.92;5.72;;;;;;;17.43;50.76;97469.94;5054323;28;20192;-62
2023/01/19 09:36:31;;;;;;;24.92;5.90;;;;;;;17.23;49.97;97437.28;5054653;28;20195;-62
2023/01/19 09:38:56;;;;;;;35.17;6.88;;;;;;;17.45;51.51;97462.72;5054423;28;20197;-62
2023/01/19 09:41:24;;;;;;;24.08;5.60;;;;;;;17.24;50.16;97423.22;5054201;28;20177;-62
2023/01/19 09:43:50;;;;;;;30.67;5.97;;;;;;;17.54;51.33;97461.69;5054948;28;20173;-61
2023/01/19 09:46:21;;;;;;;23.10;6.55;;;;;;;17.55;50.81;97452.88;5054450;28;20593;-62
2023/01/19 09:48:51;;;;;;;22.35;5.25;;;;;;;17.72;49.09;97473.53;5054696;28;20539;-62
2023/01/19 09:51:23;;;;;;;31.92;8.95;;;;;;;17.72;48.79;97430.84;5054339;28;20215;-62
2023/01/19 09:53:59;;;;;;;30.88;6.20;;;;;;;17.86;49.65;97454.47;5054306;28;20192;-61
2023/01/19 09:56:27;;;;;;;26.50;4.72;;;;;;;17.95;45.46;97460.47;5054489;28;20238;-61
2023/01/19 09:58:53;;;;;;;30.40;5.00;;;;;;;17.86;46.46;97407.38;5054105;28;20201;-61
2023/01/19 10:01:44;;;;;;;19.60;4.85;;;;;;;18.23;46.71;97427.53;5054078;28;20180;-61
2023/01/19 10:04:37;;;;;;;22.17;7.18;;;;;;;18.28;46.32;97440.91;5054115;28;20179;-61
2023/01/19 10:07:24;;;;;;;23.75;5.45;;;;;;;17.91;46.00;97365.78;5054894;28;20272;-61
2023/01/19 10:10:19;;;;;;;29.73;6.35;;;;;;;18.42;45.52;97437.56;5054833;28;20585;-61
2023/01/19 10:13:09;;;;;;;25.75;6.32;;;;;;;18.50;44.76;97427.81;5054427;28;20196;-62
2023/01/19 10:16:02;;;;;;;34.10;11.80;;;;;;;18.28;45.28;97394.59;5054439;28;20179;-61
2023/01/19 10:18:35;;;;;;;19.50;5.40;;;;;;;18.59;44.61;97425.94;5054607;28;20707;-61
2023/01/19 10:21:10;;;;;;;29.10;6.70;;;;;;;18.59;44.90;97413.63;5053789;28;20180;-62
2023/01/19 10:23:46;;;;;;;28.13;10.68;;;;;;;18.28;44.80;97360.56;5053668;28;20181;-61
2023/01/19 10:26:19;;;;;;;18.92;5.07;;;;;;;18.36;44.69;97385.88;5053633;28;20203;-61
2023/01/19 10:28:47;;;;;;;23.17;6.72;;;;;;;18.56;45.28;97407.94;5053957;28;20165;-61
2023/01/19 10:31:14;;;;;;;27.98;4.63;;;;;;;18.58;44.12;97432.16;5053267;28;20563;-62
2023/01/19 10:33:40;;;;;;;17.67;4.70;;;;;;;18.57;43.84;97414.81;5053438;28;20651;-61
2023/01/19 10:36:18;;;;;;;27.65;4.13;;;;;;;18.62;43.48;97402.00;5054230;28;20207;-61
2023/01/19 10:38:45;;;;;;;31.23;6.63;;;;;;;18.36;44.22;97360.50;5053277;28;20211;-62
2023/01/19 10:41:16;;;;;;;28.38;4.65;;;;;;;18.78;44.20;97407.06;5053033;28;20647;-62
2023/01/19 10:43:44;;;;;;;32.20;6.28;;;;;;;18.92;41.71;97393.97;5053604;28;20192;-61
2023/01/19 10:46:26;;;;;;;16.75;4.38;;;;;;;18.92;41.93;97399.22;5054030;28;20184;-61
2023/01/19 10:48:53;;;;;;;42.40;12.98;;;;;;;18.82;42.21;97353.31;5053823;28;20193;-61
2023/01/19 10:51:19;;;;;;;27.30;7.90;;;;;;;18.85;42.13;97347.69;5053143;28;20195;-62
2023/01/19 10:53:57;;;;;;;65.60;22.55;;;;;;;18.85;41.93;97376.53;5053640;28;20180;-62
2023/01/19 10:56:28;;;;;;;31.30;9.52;;;;;;;18.92;41.84;97351.19;5053633;28;20169;-61
2023/01/19 10:58:53;;;;;;;39.10;11.95;;;;;;;19.22;41.95;97387.72;5053808;28;20192;-61
2023/01/19 11:01:24;;;;;;;25.33;4.78;;;;;;;19.34;42.48;97403.78;5053027;28;20181;-62
2023/01/19 11:03:52;;;;;;;31.02;7.60;;;;;;;19.44;42.35;97388.59;5070914;28;20696;-61
2023/01/19 11:06:24;;;;;;;30.83;8.05;;;;;;;19.30;41.30;97366.63;5070667;28;20299;-61
2023/01/19 11:08:51;;;;;;;16.02;3.83;;;;;;;19.60;41.38;97383.94;5070540;28;20184;-61
2023/01/19 11:11:19;;;;;;;23.75;3.88;;;;;;;19.36;41.49;97344.09;5071272;28;20218;-62
2023/01/19 11:14:00;;;;;;;16.13;3.72;;;;;;;19.43;41.69;97345.81;5070921;28;20208;-61
2023/01/19 11:16:30;;;;;;;18.70;4.10;;;;;;;19.70;42.00;97394.13;5070622;28;20198;-62
2023/01/19 11:18:57;;;;;;;13.55;3.80;;;;;;;19.33;41.21;97339.22;5070825;28;20203;-61
2023/01/19 11:21:27;;;;;;;25.40;5.15;;;;;;;19.73;41.41;97393.75;5070859;28;20280;-61
2023/01/19 11:23:57;;;;;;;20.70;3.00;;;;;;;19.75;41.58;97407.50;5070334;28;20176;-62
2023/01/19 11:26:31;;;;;;;9.43;2.40;;;;;;;19.62;41.51;97402.09;5070211;28;20180;-61
2023/01/19 11:28:59;;;;;;;9.10;3.47;;;;;;;19.65;42.44;97396.50;5070788;28;20188;-61
2023/01/19 11:31:27;;;;;;;16.98;3.15;;;;;;;19.55;41.45;97403.84;5070511;28;20180;-62
2023/01/19 11:33:59;;;;;;;11.60;3.15;;;;;;;19.19;42.71;97329.56;5070180;28;20264;-61